createdAt,value
2023-06-07T00:03:09.907Z,3.60
2023-06-07T00:08:29.976Z,3.50
2023-06-07T00:13:50.097Z,4.00
2023-06-07T00:19:10.250Z,3.47
2023-06-07T00:24:30.454Z,3.60
2023-06-07T00:29:50.603Z,3.50
2023-06-07T00:35:10.731Z,3.17
2023-06-07T00:40:30.814Z,3.37
2023-06-07T00:45:51.013Z,3.20
2023-06-07T00:51:11.145Z,3.20
2023-06-07T00:56:31.239Z,3.60
2023-06-07T01:01:51.422Z,3.50
2023-06-07T01:07:11.528Z,3.20
2023-06-07T01:12:31.643Z,3.00
2023-06-07T01:17:51.892Z,3.30
2023-06-07T01:23:11.990Z,3.30
2023-06-07T01:28:32.152Z,3.10
2023-06-07T01:33:52.438Z,3.23
2023-06-07T01:39:12.533Z,4.10
2023-06-07T01:44:32.676Z,3.10
2023-06-07T01:49:52.810Z,3.30
2023-06-07T01:55:12.926Z,3.70
2023-06-07T02:00:33.156Z,2.90
2023-06-07T02:05:53.238Z,3.20
2023-06-07T02:11:13.376Z,2.90
2023-06-07T02:16:33.514Z,3.67
2023-06-07T02:21:53.553Z,3.00
2023-06-07T02:27:13.655Z,3.47
2023-06-07T02:32:33.693Z,2.83
2023-06-07T02:37:53.778Z,3.10
2023-06-07T02:43:13.897Z,2.97
2023-06-07T02:48:34.023Z,3.30
2023-06-07T02:53:54.178Z,3.10
2023-06-07T02:59:14.379Z,3.20
2023-06-07T03:04:34.358Z,3.17
2023-06-07T03:09:54.657Z,3.20
2023-06-07T03:15:14.825Z,3.67
2023-06-07T03:20:35.044Z,3.40
2023-06-07T03:25:55.135Z,2.53
2023-06-07T03:31:15.374Z,2.93
2023-06-07T03:36:35.517Z,3.30
2023-06-07T03:41:55.766Z,3.37
2023-06-07T03:47:16.001Z,2.67
2023-06-07T03:52:36.444Z,2.53
2023-06-07T03:57:56.219Z,3.20
2023-06-07T04:03:16.557Z,2.60
2023-06-07T04:08:36.659Z,2.87
2023-06-07T04:13:56.894Z,2.70
2023-06-07T04:19:17.325Z,2.80
2023-06-07T04:24:37.614Z,3.40
2023-06-07T04:29:57.808Z,2.83
2023-06-07T04:35:18.077Z,3.00
2023-06-07T04:40:38.149Z,2.37
2023-06-07T04:45:58.418Z,2.73
2023-06-07T04:51:18.423Z,2.57
2023-06-07T04:56:38.697Z,3.27
2023-06-07T05:01:58.905Z,3.37
2023-06-07T05:07:18.989Z,2.43
2023-06-07T05:12:39.225Z,3.30
2023-06-07T05:17:59.537Z,2.90
2023-06-07T05:23:19.640Z,2.67
2023-06-07T05:28:39.871Z,2.83
2023-06-07T05:34:00.035Z,3.07
2023-06-07T05:39:22.458Z,2.73
2023-06-07T05:44:42.532Z,2.90
2023-06-07T05:50:02.985Z,2.90
2023-06-07T05:55:23.476Z,2.50
2023-06-07T06:00:43.573Z,3.00
2023-06-07T06:06:03.711Z,2.90
2023-06-07T06:11:23.960Z,3.10
2023-06-07T06:16:44.041Z,3.00
2023-06-07T06:22:04.273Z,2.60
2023-06-07T06:27:24.499Z,3.13
2023-06-07T06:32:44.727Z,3.40
2023-06-07T06:38:04.824Z,3.20
2023-06-07T06:43:25.057Z,3.50
2023-06-07T06:48:52.824Z,3.00
2023-06-07T06:54:19.445Z,2.83
2023-06-07T06:59:39.608Z,2.83
2023-06-07T07:04:59.771Z,2.53
2023-06-07T07:10:20.089Z,3.10
2023-06-07T07:15:40.218Z,2.60
2023-06-07T07:21:00.349Z,2.70
2023-06-07T07:26:20.559Z,3.07
2023-06-07T07:31:40.828Z,2.90
2023-06-07T07:37:00.831Z,3.10
2023-06-07T07:42:20.969Z,2.80
2023-06-07T07:47:41.131Z,2.73
2023-06-07T07:53:01.350Z,2.97
2023-06-07T07:58:21.468Z,2.97
2023-06-07T08:03:41.895Z,2.90
2023-06-07T08:09:02.302Z,2.80
2023-06-07T08:14:22.418Z,2.47
2023-06-07T08:19:42.555Z,3.20
2023-06-07T08:25:02.691Z,3.00
2023-06-07T08:30:22.692Z,2.40
2023-06-07T08:35:43.939Z,2.43
2023-06-07T08:41:03.789Z,2.53
2023-06-07T08:46:24.068Z,2.73
2023-06-07T08:51:44.160Z,3.00
2023-06-07T08:57:04.397Z,2.70
2023-06-07T09:02:24.491Z,2.80
2023-06-07T09:07:44.661Z,2.50
2023-06-07T09:13:04.737Z,2.87
2023-06-07T09:18:24.939Z,2.50
2023-06-07T09:23:45.009Z,2.70
2023-06-07T09:29:05.052Z,3.10
2023-06-07T09:34:25.056Z,3.10
2023-06-07T09:39:45.321Z,2.80
2023-06-07T09:45:05.284Z,2.93
2023-06-07T09:50:25.546Z,2.80
2023-06-07T09:55:45.663Z,2.97
2023-06-07T10:01:05.741Z,2.73
2023-06-07T10:06:25.895Z,3.43
2023-06-07T10:11:46.036Z,2.80
2023-06-07T10:17:06.349Z,3.60
2023-06-07T10:22:26.373Z,3.27
2023-06-07T10:27:46.446Z,2.73
2023-06-07T10:33:06.575Z,2.90
2023-06-07T10:38:26.596Z,2.70
2023-06-07T10:43:46.854Z,2.80
2023-06-07T10:49:06.979Z,3.37
2023-06-07T10:54:27.152Z,3.00
2023-06-07T10:59:47.290Z,2.90
2023-06-07T11:05:07.580Z,2.77
2023-06-07T11:10:27.489Z,3.13
2023-06-07T11:15:47.941Z,3.30
2023-06-07T11:21:07.938Z,2.73
2023-06-07T11:26:28.198Z,2.57
2023-06-07T11:31:48.259Z,2.83
2023-06-07T11:37:08.509Z,2.93
2023-06-07T11:42:28.668Z,2.53
2023-06-07T11:47:50.676Z,3.07
2023-06-07T11:53:13.582Z,2.73
2023-06-07T11:58:34.332Z,2.63
2023-06-07T12:03:54.470Z,2.50
2023-06-07T12:09:15.612Z,4.37
2023-06-07T12:14:37.368Z,4.90
2023-06-07T12:19:59.638Z,8.03
2023-06-07T12:25:19.819Z,8.83
2023-06-07T12:30:39.826Z,9.10
2023-06-07T12:36:00.004Z,10.97
2023-06-07T12:41:20.079Z,9.20
2023-06-07T12:46:40.264Z,8.67
2023-06-07T12:52:00.364Z,8.13
2023-06-07T12:57:20.557Z,8.87
2023-06-07T13:02:40.916Z,8.30
2023-06-07T13:08:00.924Z,8.93
2023-06-07T13:13:21.091Z,8.00
2023-06-07T13:18:41.186Z,10.30
2023-06-07T13:24:01.427Z,8.70
2023-06-07T13:29:21.600Z,9.70
2023-06-07T13:34:41.754Z,10.47
2023-06-07T13:40:01.975Z,12.00
2023-06-07T13:45:22.161Z,12.00
2023-06-07T13:50:42.414Z,12.30
2023-06-07T13:56:02.550Z,13.50
2023-06-07T14:01:22.737Z,13.80
2023-06-07T14:06:42.665Z,14.13
2023-06-07T14:12:02.863Z,15.00
2023-06-07T14:17:23.074Z,15.10
2023-06-07T14:22:43.187Z,15.07
2023-06-07T14:28:03.474Z,14.70
2023-06-07T14:33:23.580Z,13.97
2023-06-07T14:38:43.724Z,14.73
2023-06-07T14:44:03.923Z,14.57
2023-06-07T14:49:24.043Z,13.50
2023-06-07T14:54:44.045Z,13.40
2023-06-07T15:00:06.267Z,12.77
2023-06-07T15:05:27.327Z,12.67
2023-06-07T15:10:47.527Z,12.67
2023-06-07T15:16:07.790Z,12.30
2023-06-07T15:21:27.825Z,11.50
2023-06-07T15:26:48.147Z,11.80
2023-06-07T15:32:08.224Z,10.70
2023-06-07T15:37:28.437Z,11.03
2023-06-07T15:42:48.524Z,12.50
2023-06-07T15:48:08.920Z,13.07
2023-06-07T15:53:29.038Z,12.70
2023-06-07T15:58:52.279Z,12.93
2023-06-07T16:04:13.315Z,12.20
2023-06-07T16:09:33.652Z,12.80
2023-06-07T16:14:53.690Z,11.70
2023-06-07T16:20:13.833Z,13.17
2023-06-07T16:25:33.902Z,12.73
2023-06-07T16:30:54.263Z,12.40
2023-06-07T16:36:14.182Z,12.53
2023-06-07T16:41:34.353Z,13.93
2023-06-07T16:46:54.624Z,13.20
2023-06-07T16:52:14.905Z,12.43
2023-06-07T16:57:35.478Z,12.20
2023-06-07T17:02:56.675Z,11.30
2023-06-07T17:08:16.717Z,11.80
2023-06-07T17:13:36.969Z,10.90
2023-06-07T17:18:57.017Z,10.60
2023-06-07T17:24:17.460Z,11.10
2023-06-07T17:29:37.421Z,10.73
2023-06-07T17:34:57.621Z,9.77
2023-06-07T17:40:17.708Z,10.33
2023-06-07T17:45:38.002Z,10.80
2023-06-07T17:50:58.032Z,11.20
2023-06-07T17:56:18.103Z,10.90
2023-06-07T18:01:38.352Z,11.00
2023-06-07T18:06:59.606Z,10.50
2023-06-07T18:12:21.165Z,10.40
2023-06-07T18:17:41.393Z,10.00
2023-06-07T18:23:01.477Z,9.70
2023-06-07T18:28:21.683Z,9.97
2023-06-07T18:33:41.874Z,10.60
2023-06-07T18:39:01.939Z,9.93
2023-06-07T18:44:22.108Z,9.30
2023-06-07T18:49:42.274Z,10.30
2023-06-07T18:55:02.454Z,9.57
2023-06-07T19:00:22.601Z,9.97
2023-06-07T19:05:42.552Z,9.93
2023-06-07T19:11:02.713Z,8.50
2023-06-07T19:16:22.829Z,9.47
2023-06-07T19:21:43.038Z,10.50
2023-06-07T19:27:03.091Z,10.90
2023-06-07T19:32:23.444Z,9.83
2023-06-07T19:37:43.583Z,8.87
2023-06-07T19:43:03.773Z,9.93
2023-06-07T19:48:23.973Z,9.90
2023-06-07T19:53:44.255Z,9.43
2023-06-07T19:59:04.365Z,9.10
2023-06-07T20:04:24.675Z,9.10
2023-06-07T20:09:44.808Z,8.90
2023-06-07T20:15:04.981Z,10.20
2023-06-07T20:20:25.040Z,8.50
2023-06-07T20:25:45.153Z,9.80
2023-06-07T20:31:05.415Z,8.97
2023-06-07T20:36:25.586Z,8.70
2023-06-07T20:41:45.702Z,9.30
2023-06-07T20:47:06.029Z,9.10
2023-06-07T20:52:26.088Z,9.60
2023-06-07T20:57:46.370Z,9.60
2023-06-07T21:03:06.568Z,9.17
2023-06-07T21:08:26.683Z,9.37
2023-06-07T21:13:46.919Z,9.67
2023-06-07T21:19:06.984Z,9.73
2023-06-07T21:24:27.208Z,8.80
2023-06-07T21:29:47.340Z,8.57
2023-06-07T21:35:07.476Z,10.27
2023-06-07T21:40:27.514Z,8.97
2023-06-07T21:45:47.699Z,8.40
2023-06-07T21:51:07.883Z,9.00
2023-06-07T21:56:28.019Z,8.03
2023-06-07T22:01:48.285Z,7.70
2023-06-07T22:07:08.333Z,7.43
2023-06-07T22:12:28.395Z,7.13
2023-06-07T22:17:48.544Z,8.37
2023-06-07T22:23:08.743Z,8.30
2023-06-07T22:28:28.825Z,7.07
2023-06-07T22:33:48.860Z,8.53
2023-06-07T22:39:09.100Z,8.60
2023-06-07T22:44:29.145Z,8.13
2023-06-07T22:49:49.392Z,7.97
2023-06-07T22:55:09.497Z,7.53
2023-06-07T23:00:29.713Z,8.27
2023-06-07T23:05:49.882Z,7.10
2023-06-07T23:11:10.188Z,8.20
2023-06-07T23:16:30.243Z,7.90
2023-06-07T23:21:50.402Z,7.37
2023-06-07T23:27:10.523Z,8.30
2023-06-07T23:32:30.693Z,8.10
2023-06-07T23:37:50.903Z,8.23
2023-06-07T23:43:11.039Z,8.43
2023-06-07T23:48:31.157Z,7.97
2023-06-07T23:53:51.464Z,7.33
2023-06-07T23:59:11.625Z,7.70
